sensor_id;sensor_type;location;lat;lon;timestamp;temperature;humidity
80380;DHT22;69690;48.158;17.134;2023-06-22T00:01:44;22.70;75.90
80380;DHT22;69690;48.158;17.134;2023-06-22T00:06:45;22.80;76.00
80380;DHT22;69690;48.158;17.134;2023-06-22T00:11:46;22.80;76.40
80380;DHT22;69690;48.158;17.134;2023-06-22T00:16:47;22.60;76.90
80380;DHT22;69690;48.158;17.134;2023-06-22T00:21:50;22.60;78.00
80380;DHT22;69690;48.158;17.134;2023-06-22T00:26:54;22.50;77.90
80380;DHT22;69690;48.158;17.134;2023-06-22T00:31:55;22.20;78.30
80380;DHT22;69690;48.158;17.134;2023-06-22T00:36:57;22.20;79.00
80380;DHT22;69690;48.158;17.134;2023-06-22T00:41:59;22.20;79.00
80380;DHT22;69690;48.158;17.134;2023-06-22T00:47:00;22.20;79.00
80380;DHT22;69690;48.158;17.134;2023-06-22T00:52:01;22.20;79.00
80380;DHT22;69690;48.158;17.134;2023-06-22T00:57:04;22.20;78.70
80380;DHT22;69690;48.158;17.134;2023-06-22T01:02:05;22.30;79.00
80380;DHT22;69690;48.158;17.134;2023-06-22T01:12:51;22.20;78.80
80380;DHT22;69690;48.158;17.134;2023-06-22T01:17:55;22.10;78.80
80380;DHT22;69690;48.158;17.134;2023-06-22T01:28:53;22.10;79.50
80380;DHT22;69690;48.158;17.134;2023-06-22T01:34:01;22.20;79.30
80380;DHT22;69690;48.158;17.134;2023-06-22T01:39:04;22.10;78.90
80380;DHT22;69690;48.158;17.134;2023-06-22T01:44:07;22.20;78.80
80380;DHT22;69690;48.158;17.134;2023-06-22T01:49:10;22.20;78.50
80380;DHT22;69690;48.158;17.134;2023-06-22T01:54:11;22.20;78.50
80380;DHT22;69690;48.158;17.134;2023-06-22T01:59:39;22.10;79.10
80380;DHT22;69690;48.158;17.134;2023-06-22T02:05:09;22.20;79.90
80380;DHT22;69690;48.158;17.134;2023-06-22T02:10:14;22.00;79.40
80380;DHT22;69690;48.158;17.134;2023-06-22T02:15:17;21.80;79.80
80380;DHT22;69690;48.158;17.134;2023-06-22T02:20:21;21.80;79.10
80380;DHT22;69690;48.158;17.134;2023-06-22T02:25:22;21.90;78.80
80380;DHT22;69690;48.158;17.134;2023-06-22T02:30:23;22.00;78.70
80380;DHT22;69690;48.158;17.134;2023-06-22T02:35:28;21.90;78.30
80380;DHT22;69690;48.158;17.134;2023-06-22T02:40:32;22.00;78.30
80380;DHT22;69690;48.158;17.134;2023-06-22T02:45:34;22.00;78.00
80380;DHT22;69690;48.158;17.134;2023-06-22T02:50:35;21.90;79.10
80380;DHT22;69690;48.158;17.134;2023-06-22T02:55:37;21.90;77.30
80380;DHT22;69690;48.158;17.134;2023-06-22T03:00:41;21.70;77.30
80380;DHT22;69690;48.158;17.134;2023-06-22T03:05:43;21.60;78.00
80380;DHT22;69690;48.158;17.134;2023-06-22T03:10:44;21.70;77.80
80380;DHT22;69690;48.158;17.134;2023-06-22T03:15:45;21.70;77.70
80380;DHT22;69690;48.158;17.134;2023-06-22T03:20:50;21.80;77.80
80380;DHT22;69690;48.158;17.134;2023-06-22T03:25:51;21.90;78.00
80380;DHT22;69690;48.158;17.134;2023-06-22T03:30:53;21.90;77.90
80380;DHT22;69690;48.158;17.134;2023-06-22T03:35:54;21.90;77.60
80380;DHT22;69690;48.158;17.134;2023-06-22T03:40:55;21.90;77.60
80380;DHT22;69690;48.158;17.134;2023-06-22T03:45:57;21.90;77.20
80380;DHT22;69690;48.158;17.134;2023-06-22T03:51:02;21.70;77.80
80380;DHT22;69690;48.158;17.134;2023-06-22T03:56:08;21.70;78.80
80380;DHT22;69690;48.158;17.134;2023-06-22T04:01:09;21.90;78.70
80380;DHT22;69690;48.158;17.134;2023-06-22T04:06:12;22.00;78.60
80380;DHT22;69690;48.158;17.134;2023-06-22T04:11:13;22.10;78.50
80380;DHT22;69690;48.158;17.134;2023-06-22T04:16:14;22.10;78.30
80380;DHT22;69690;48.158;17.134;2023-06-22T04:21:16;22.20;78.20
80380;DHT22;69690;48.158;17.134;2023-06-22T04:26:17;22.20;78.50
80380;DHT22;69690;48.158;17.134;2023-06-22T04:31:21;22.30;77.80
80380;DHT22;69690;48.158;17.134;2023-06-22T04:36:41;22.50;76.80
80380;DHT22;69690;48.158;17.134;2023-06-22T04:41:43;22.40;77.80
80380;DHT22;69690;48.158;17.134;2023-06-22T04:46:44;22.40;78.20
80380;DHT22;69690;48.158;17.134;2023-06-22T04:51:45;22.50;78.00
80380;DHT22;69690;48.158;17.134;2023-06-22T04:56:46;22.70;77.40
80380;DHT22;69690;48.158;17.134;2023-06-22T05:01:49;22.80;76.50
80380;DHT22;69690;48.158;17.134;2023-06-22T05:06:52;22.90;75.80
80380;DHT22;69690;48.158;17.134;2023-06-22T05:11:53;22.90;75.30
80380;DHT22;69690;48.158;17.134;2023-06-22T05:16:55;22.90;73.10
80380;DHT22;69690;48.158;17.134;2023-06-22T05:21:59;23.00;72.40
80380;DHT22;69690;48.158;17.134;2023-06-22T05:27:00;23.10;72.10
80380;DHT22;69690;48.158;17.134;2023-06-22T05:32:02;23.20;71.80
80380;DHT22;69690;48.158;17.134;2023-06-22T05:37:03;23.30;70.50
80380;DHT22;69690;48.158;17.134;2023-06-22T05:42:05;23.40;70.10
80380;DHT22;69690;48.158;17.134;2023-06-22T05:47:07;23.40;68.60
80380;DHT22;69690;48.158;17.134;2023-06-22T05:52:09;23.50;67.80
80380;DHT22;69690;48.158;17.134;2023-06-22T05:57:10;23.50;68.10
80380;DHT22;69690;48.158;17.134;2023-06-22T06:02:12;23.60;68.80
80380;DHT22;69690;48.158;17.134;2023-06-22T06:07:13;23.80;68.20
80380;DHT22;69690;48.158;17.134;2023-06-22T06:12:14;23.90;68.00
80380;DHT22;69690;48.158;17.134;2023-06-22T06:17:15;24.10;68.70
80380;DHT22;69690;48.158;17.134;2023-06-22T06:22:16;24.00;68.90
80380;DHT22;69690;48.158;17.134;2023-06-22T06:27:19;23.90;69.40
80380;DHT22;69690;48.158;17.134;2023-06-22T06:32:20;23.90;69.60
80380;DHT22;69690;48.158;17.134;2023-06-22T06:37:22;24.00;69.80
80380;DHT22;69690;48.158;17.134;2023-06-22T06:42:23;24.20;68.90
80380;DHT22;69690;48.158;17.134;2023-06-22T06:47:25;24.30;69.00
80380;DHT22;69690;48.158;17.134;2023-06-22T06:52:26;24.40;68.30
80380;DHT22;69690;48.158;17.134;2023-06-22T06:57:27;24.50;68.10
80380;DHT22;69690;48.158;17.134;2023-06-22T07:02:29;24.60;67.40
80380;DHT22;69690;48.158;17.134;2023-06-22T07:07:31;24.70;67.10
80380;DHT22;69690;48.158;17.134;2023-06-22T07:12:32;24.90;66.10
80380;DHT22;69690;48.158;17.134;2023-06-22T07:17:34;24.90;66.50
80380;DHT22;69690;48.158;17.134;2023-06-22T07:22:42;25.10;66.00
80380;DHT22;69690;48.158;17.134;2023-06-22T07:33:04;25.30;65.90
80380;DHT22;69690;48.158;17.134;2023-06-22T07:38:08;25.40;66.20
80380;DHT22;69690;48.158;17.134;2023-06-22T07:43:10;25.60;66.00
80380;DHT22;69690;48.158;17.134;2023-06-22T07:48:12;25.60;64.10
80380;DHT22;69690;48.158;17.134;2023-06-22T07:53:13;25.60;64.10
80380;DHT22;69690;48.158;17.134;2023-06-22T07:58:14;25.70;63.00
80380;DHT22;69690;48.158;17.134;2023-06-22T08:03:19;25.80;62.40
80380;DHT22;69690;48.158;17.134;2023-06-22T08:08:21;25.90;61.80
80380;DHT22;69690;48.158;17.134;2023-06-22T08:13:22;26.00;62.10
80380;DHT22;69690;48.158;17.134;2023-06-22T08:18:24;26.20;61.50
80380;DHT22;69690;48.158;17.134;2023-06-22T08:23:25;26.30;60.00
80380;DHT22;69690;48.158;17.134;2023-06-22T08:28:26;26.50;60.90
80380;DHT22;69690;48.158;17.134;2023-06-22T08:33:28;26.60;60.00
80380;DHT22;69690;48.158;17.134;2023-06-22T08:38:29;26.60;59.20
80380;DHT22;69690;48.158;17.134;2023-06-22T08:43:30;26.90;59.90
80380;DHT22;69690;48.158;17.134;2023-06-22T08:48:31;27.20;59.80
80380;DHT22;69690;48.158;17.134;2023-06-22T08:53:32;27.40;57.50
80380;DHT22;69690;48.158;17.134;2023-06-22T08:58:35;27.50;57.20
80380;DHT22;69690;48.158;17.134;2023-06-22T09:03:36;27.70;56.60
80380;DHT22;69690;48.158;17.134;2023-06-22T09:08:38;27.70;56.00
80380;DHT22;69690;48.158;17.134;2023-06-22T09:13:39;28.00;55.70
80380;DHT22;69690;48.158;17.134;2023-06-22T09:18:41;28.20;53.70
80380;DHT22;69690;48.158;17.134;2023-06-22T09:23:42;28.30;53.00
80380;DHT22;69690;48.158;17.134;2023-06-22T09:28:44;28.30;52.30
80380;DHT22;69690;48.158;17.134;2023-06-22T09:33:46;28.60;53.20
80380;DHT22;69690;48.158;17.134;2023-06-22T09:38:48;28.80;52.60
80380;DHT22;69690;48.158;17.134;2023-06-22T09:43:50;28.90;52.50
80380;DHT22;69690;48.158;17.134;2023-06-22T09:48:51;29.00;50.70
80380;DHT22;69690;48.158;17.134;2023-06-22T09:53:54;29.20;49.60
80380;DHT22;69690;48.158;17.134;2023-06-22T09:58:55;29.30;49.30
80380;DHT22;69690;48.158;17.134;2023-06-22T10:03:56;29.40;49.70
80380;DHT22;69690;48.158;17.134;2023-06-22T10:09:00;29.60;48.70
80380;DHT22;69690;48.158;17.134;2023-06-22T10:14:01;31.50;44.20
80380;DHT22;69690;48.158;17.134;2023-06-22T10:19:04;34.40;40.70
80380;DHT22;69690;48.158;17.134;2023-06-22T10:24:06;35.50;36.70
80380;DHT22;69690;48.158;17.134;2023-06-22T10:29:07;36.30;36.80
80380;DHT22;69690;48.158;17.134;2023-06-22T10:34:08;36.60;36.20
80380;DHT22;69690;48.158;17.134;2023-06-22T10:39:10;36.90;36.50
80380;DHT22;69690;48.158;17.134;2023-06-22T10:44:13;36.90;36.50
80380;DHT22;69690;48.158;17.134;2023-06-22T10:49:14;36.90;36.30
80380;DHT22;69690;48.158;17.134;2023-06-22T10:54:16;36.80;35.90
80380;DHT22;69690;48.158;17.134;2023-06-22T10:59:19;37.30;35.70
80380;DHT22;69690;48.158;17.134;2023-06-22T11:04:22;37.60;35.60
80380;DHT22;69690;48.158;17.134;2023-06-22T11:09:23;38.00;35.40
80380;DHT22;69690;48.158;17.134;2023-06-22T11:14:25;38.00;35.10
80380;DHT22;69690;48.158;17.134;2023-06-22T11:19:27;38.10;34.70
80380;DHT22;69690;48.158;17.134;2023-06-22T11:24:28;38.00;35.40
80380;DHT22;69690;48.158;17.134;2023-06-22T11:29:29;38.10;35.70
80380;DHT22;69690;48.158;17.134;2023-06-22T11:34:31;38.30;34.90
80380;DHT22;69690;48.158;17.134;2023-06-22T11:39:32;38.50;35.00
80380;DHT22;69690;48.158;17.134;2023-06-22T11:44:34;38.40;32.80
80380;DHT22;69690;48.158;17.134;2023-06-22T11:49:35;38.00;32.60
80380;DHT22;69690;48.158;17.134;2023-06-22T11:54:36;37.40;34.40
80380;DHT22;69690;48.158;17.134;2023-06-22T11:59:38;38.00;34.40
80380;DHT22;69690;48.158;17.134;2023-06-22T12:09:43;38.20;33.90
80380;DHT22;69690;48.158;17.134;2023-06-22T12:14:44;38.30;33.70
80380;DHT22;69690;48.158;17.134;2023-06-22T12:19:46;38.50;34.60
80380;DHT22;69690;48.158;17.134;2023-06-22T12:24:47;38.80;34.40
80380;DHT22;69690;48.158;17.134;2023-06-22T12:29:48;38.40;33.10
80380;DHT22;69690;48.158;17.134;2023-06-22T12:34:49;38.10;34.40
80380;DHT22;69690;48.158;17.134;2023-06-22T12:39:51;37.70;35.50
80380;DHT22;69690;48.158;17.134;2023-06-22T12:44:52;36.40;37.00
80380;DHT22;69690;48.158;17.134;2023-06-22T12:49:53;35.70;38.50
80380;DHT22;69690;48.158;17.134;2023-06-22T12:54:54;35.20;39.50
80380;DHT22;69690;48.158;17.134;2023-06-22T12:59:55;35.00;39.30
80380;DHT22;69690;48.158;17.134;2023-06-22T13:04:57;35.20;40.30
80380;DHT22;69690;48.158;17.134;2023-06-22T13:09:59;35.40;38.10
80380;DHT22;69690;48.158;17.134;2023-06-22T13:15:00;35.10;38.10
80380;DHT22;69690;48.158;17.134;2023-06-22T13:20:03;34.40;38.80
80380;DHT22;69690;48.158;17.134;2023-06-22T13:25:06;34.00;38.10
80380;DHT22;69690;48.158;17.134;2023-06-22T13:30:09;33.60;39.00
80380;DHT22;69690;48.158;17.134;2023-06-22T13:35:11;33.70;39.30
80380;DHT22;69690;48.158;17.134;2023-06-22T13:40:12;33.30;40.20
80380;DHT22;69690;48.158;17.134;2023-06-22T13:45:13;33.30;40.30
80380;DHT22;69690;48.158;17.134;2023-06-22T13:50:17;33.90;40.00
80380;DHT22;69690;48.158;17.134;2023-06-22T13:55:18;33.70;40.10
80380;DHT22;69690;48.158;17.134;2023-06-22T14:00:21;33.40;40.70
80380;DHT22;69690;48.158;17.134;2023-06-22T14:05:23;33.60;41.20
80380;DHT22;69690;48.158;17.134;2023-06-22T14:10:24;33.90;40.60
80380;DHT22;69690;48.158;17.134;2023-06-22T14:15:26;33.40;40.40
80380;DHT22;69690;48.158;17.134;2023-06-22T14:20:27;33.40;41.70
80380;DHT22;69690;48.158;17.134;2023-06-22T14:25:28;33.50;41.00
80380;DHT22;69690;48.158;17.134;2023-06-22T14:30:29;33.80;41.30
80380;DHT22;69690;48.158;17.134;2023-06-22T14:35:30;33.70;40.50
80380;DHT22;69690;48.158;17.134;2023-06-22T14:40:32;33.70;42.00
80380;DHT22;69690;48.158;17.134;2023-06-22T14:45:33;33.50;40.50
80380;DHT22;69690;48.158;17.134;2023-06-22T14:50:34;33.50;40.90
80380;DHT22;69690;48.158;17.134;2023-06-22T14:55:36;33.40;41.60
80380;DHT22;69690;48.158;17.134;2023-06-22T15:00:37;33.30;41.70
80380;DHT22;69690;48.158;17.134;2023-06-22T15:05:38;33.60;41.90
80380;DHT22;69690;48.158;17.134;2023-06-22T15:10:39;33.50;41.00
80380;DHT22;69690;48.158;17.134;2023-06-22T15:15:40;33.30;41.40
80380;DHT22;69690;48.158;17.134;2023-06-22T15:20:43;33.20;41.60
80380;DHT22;69690;48.158;17.134;2023-06-22T15:25:48;33.30;41.90
80380;DHT22;69690;48.158;17.134;2023-06-22T15:30:50;33.30;42.80
80380;DHT22;69690;48.158;17.134;2023-06-22T15:35:52;33.20;43.20
80380;DHT22;69690;48.158;17.134;2023-06-22T15:40:53;33.20;42.80
80380;DHT22;69690;48.158;17.134;2023-06-22T15:45:55;33.20;43.50
80380;DHT22;69690;48.158;17.134;2023-06-22T15:50:57;33.10;43.90
80380;DHT22;69690;48.158;17.134;2023-06-22T15:55:58;33.10;44.00
80380;DHT22;69690;48.158;17.134;2023-06-22T16:00:59;33.00;44.10
80380;DHT22;69690;48.158;17.134;2023-06-22T16:06:01;32.70;44.60
80380;DHT22;69690;48.158;17.134;2023-06-22T16:11:02;32.50;45.20
80380;DHT22;69690;48.158;17.134;2023-06-22T16:16:03;32.40;45.90
80380;DHT22;69690;48.158;17.134;2023-06-22T16:21:04;32.30;45.90
80380;DHT22;69690;48.158;17.134;2023-06-22T16:26:06;32.20;46.30
80380;DHT22;69690;48.158;17.134;2023-06-22T16:31:07;32.10;46.60
80380;DHT22;69690;48.158;17.134;2023-06-22T16:36:08;32.10;47.20
80380;DHT22;69690;48.158;17.134;2023-06-22T16:41:09;32.10;47.20
80380;DHT22;69690;48.158;17.134;2023-06-22T16:46:11;32.00;47.50
80380;DHT22;69690;48.158;17.134;2023-06-22T16:51:12;32.10;47.80
80380;DHT22;69690;48.158;17.134;2023-06-22T16:56:13;32.00;47.50
80380;DHT22;69690;48.158;17.134;2023-06-22T17:01:14;32.00;47.80
80380;DHT22;69690;48.158;17.134;2023-06-22T17:06:18;31.90;47.90
80380;DHT22;69690;48.158;17.134;2023-06-22T17:11:20;31.90;48.10
80380;DHT22;69690;48.158;17.134;2023-06-22T17:16:22;31.80;48.60
80380;DHT22;69690;48.158;17.134;2023-06-22T17:21:24;31.60;49.40
80380;DHT22;69690;48.158;17.134;2023-06-22T17:26:26;31.50;49.80
80380;DHT22;69690;48.158;17.134;2023-06-22T17:31:36;31.30;49.80
80380;DHT22;69690;48.158;17.134;2023-06-22T17:36:43;31.10;50.10
80380;DHT22;69690;48.158;17.134;2023-06-22T17:41:46;31.00;50.30
80380;DHT22;69690;48.158;17.134;2023-06-22T17:46:56;30.90;50.70
80380;DHT22;69690;48.158;17.134;2023-06-22T17:52:00;30.80;51.30
80380;DHT22;69690;48.158;17.134;2023-06-22T17:57:01;30.70;51.80
80380;DHT22;69690;48.158;17.134;2023-06-22T18:02:06;30.60;51.60
80380;DHT22;69690;48.158;17.134;2023-06-22T18:07:09;30.60;52.00
80380;DHT22;69690;48.158;17.134;2023-06-22T18:12:11;30.50;52.30
80380;DHT22;69690;48.158;17.134;2023-06-22T18:17:13;30.40;52.40
80380;DHT22;69690;48.158;17.134;2023-06-22T18:22:15;30.30;52.80
80380;DHT22;69690;48.158;17.134;2023-06-22T18:27:16;30.10;53.20
80380;DHT22;69690;48.158;17.134;2023-06-22T18:32:17;29.90;53.40
80380;DHT22;69690;48.158;17.134;2023-06-22T18:37:19;29.70;53.80
80380;DHT22;69690;48.158;17.134;2023-06-22T18:42:21;29.40;54.30
80380;DHT22;69690;48.158;17.134;2023-06-22T18:47:30;29.30;54.60
80380;DHT22;69690;48.158;17.134;2023-06-22T18:52:31;29.30;54.80
80380;DHT22;69690;48.158;17.134;2023-06-22T18:57:33;29.30;54.80
80380;DHT22;69690;48.158;17.134;2023-06-22T19:02:42;29.30;55.00
80380;DHT22;69690;48.158;17.134;2023-06-22T19:08:03;29.30;55.20
80380;DHT22;69690;48.158;17.134;2023-06-22T19:18:49;29.30;55.80
80380;DHT22;69690;48.158;17.134;2023-06-22T19:23:54;29.20;56.00
80380;DHT22;69690;48.158;17.134;2023-06-22T19:28:57;29.30;55.90
80380;DHT22;69690;48.158;17.134;2023-06-22T19:34:03;29.20;55.90
80380;DHT22;69690;48.158;17.134;2023-06-22T19:39:05;29.20;56.20
80380;DHT22;69690;48.158;17.134;2023-06-22T19:44:06;29.10;56.30
80380;DHT22;69690;48.158;17.134;2023-06-22T19:49:09;28.90;56.70
80380;DHT22;69690;48.158;17.134;2023-06-22T19:54:11;28.80;57.30
80380;DHT22;69690;48.158;17.134;2023-06-22T19:59:16;28.80;57.60
80380;DHT22;69690;48.158;17.134;2023-06-22T20:04:18;28.60;58.50
80380;DHT22;69690;48.158;17.134;2023-06-22T20:09:20;28.50;58.90
80380;DHT22;69690;48.158;17.134;2023-06-22T20:14:21;28.40;59.10
80380;DHT22;69690;48.158;17.134;2023-06-22T20:19:37;28.40;59.30
80380;DHT22;69690;48.158;17.134;2023-06-22T20:24:41;28.40;60.00
80380;DHT22;69690;48.158;17.134;2023-06-22T20:29:43;28.40;60.30
80380;DHT22;69690;48.158;17.134;2023-06-22T20:34:45;28.30;60.40
80380;DHT22;69690;48.158;17.134;2023-06-22T20:39:48;28.30;61.00
80380;DHT22;69690;48.158;17.134;2023-06-22T20:44:49;28.10;61.50
80380;DHT22;69690;48.158;17.134;2023-06-22T20:49:52;28.00;61.80
80380;DHT22;69690;48.158;17.134;2023-06-22T20:54:53;27.90;61.90
80380;DHT22;69690;48.158;17.134;2023-06-22T20:59:54;27.90;63.00
80380;DHT22;69690;48.158;17.134;2023-06-22T21:04:55;27.90;62.70
80380;DHT22;69690;48.158;17.134;2023-06-22T21:09:57;27.80;63.00
80380;DHT22;69690;48.158;17.134;2023-06-22T21:14:58;27.80;63.40
80380;DHT22;69690;48.158;17.134;2023-06-22T21:20:02;27.70;63.80
80380;DHT22;69690;48.158;17.134;2023-06-22T21:25:11;27.70;64.90
80380;DHT22;69690;48.158;17.134;2023-06-22T21:30:13;27.70;65.10
80380;DHT22;69690;48.158;17.134;2023-06-22T21:35:16;27.80;65.20
80380;DHT22;69690;48.158;17.134;2023-06-22T21:40:17;27.70;65.60
80380;DHT22;69690;48.158;17.134;2023-06-22T21:45:18;27.50;66.00
80380;DHT22;69690;48.158;17.134;2023-06-22T21:50:20;27.40;66.90
80380;DHT22;69690;48.158;17.134;2023-06-22T21:55:21;27.30;67.30
80380;DHT22;69690;48.158;17.134;2023-06-22T22:00:22;27.20;67.80
80380;DHT22;69690;48.158;17.134;2023-06-22T22:05:23;27.20;68.40
80380;DHT22;69690;48.158;17.134;2023-06-22T22:10:24;27.10;68.80
80380;DHT22;69690;48.158;17.134;2023-06-22T22:15:26;27.00;69.10
80380;DHT22;69690;48.158;17.134;2023-06-22T22:20:27;27.00;69.40
80380;DHT22;69690;48.158;17.134;2023-06-22T22:25:28;26.90;69.80
80380;DHT22;69690;48.158;17.134;2023-06-22T22:30:31;26.80;70.50
80380;DHT22;69690;48.158;17.134;2023-06-22T22:35:34;26.70;70.80
80380;DHT22;69690;48.158;17.134;2023-06-22T22:40:36;26.70;71.20
80380;DHT22;69690;48.158;17.134;2023-06-22T22:45:37;26.80;71.30
80380;DHT22;69690;48.158;17.134;2023-06-22T22:50:38;27.00;70.80
80380;DHT22;69690;48.158;17.134;2023-06-22T22:55:39;27.10;70.40
80380;DHT22;69690;48.158;17.134;2023-06-22T23:00:41;27.00;70.40
80380;DHT22;69690;48.158;17.134;2023-06-22T23:05:42;26.70;71.20
80380;DHT22;69690;48.158;17.134;2023-06-22T23:10:43;26.70;71.50
80380;DHT22;69690;48.158;17.134;2023-06-22T23:15:45;26.60;71.80
80380;DHT22;69690;48.158;17.134;2023-06-22T23:20:46;26.50;72.30
80380;DHT22;69690;48.158;17.134;2023-06-22T23:25:47;26.40;72.50
80380;DHT22;69690;48.158;17.134;2023-06-22T23:30:48;26.40;72.60
80380;DHT22;69690;48.158;17.134;2023-06-22T23:35:50;26.30;72.80
80380;DHT22;69690;48.158;17.134;2023-06-22T23:40:51;26.30;72.80
80380;DHT22;69690;48.158;17.134;2023-06-22T23:45:52;26.30;72.80
80380;DHT22;69690;48.158;17.134;2023-06-22T23:50:55;26.10;73.40
80380;DHT22;69690;48.158;17.134;2023-06-22T23:55:59;26.10;74.10
